PATK/TKA METAR and TAF weather

Enter ICAO airport designator
Station Type Date Time Source
PATK METAR 2019/11/18 13:53 UTC NOAA

PATK 181353Z AUTO 14005KT 2SM -SN OVC020 00/M03 A2961 RMK SLP032 P0001 T00001028 TSNO $ VIA AUTODIAL


Station Type Date Time Source
PATK Decoded METAR 2019/11/18 13:53 UTC NOAA

TALKEETNA AIRPORT, AK, United States (PATK) 62-19N 150-06W 109M
Nov 18, 2019 - 08:53 AM EST / 2019.11.18 1353 UTC
Wind: from the SE (140 degrees) at 6 MPH (5 KT):0
Visibility: 2 mile(s):0
Sky conditions: overcast
Weather: light snow
Precipitation last hour: 0.01 inches
Temperature: 32.0 F (0.0 C)
Windchill: 26 F (-3 C):1
Dew Point: 27.0 F (-2.8 C)
Relative Humidity: 81%
Pressure (altimeter): 29.61 in. Hg (1002 hPa)
ob: PATK 181353Z AUTO 14005KT 2SM -SN OVC020 00/M03 A2961 RMK SLP032 P0001 T00001028 TSNO VIA AUTODIAL
cycle: 14

Station Type Date Time Source
PATK TAF 2019/11/18 12:45 UTC NOAA

TAF PATK 181143Z 1812/1912 00000KT 4SM -SN SCT025 OVC035
TEMPO 1812/1815 2SM -SN BR BKN025
FM181500 VRB03KT P6SM VCFG SCT025 OVC035
FM182200 VRB03KT P6SM BKN035

Example: see airport list